Time;durP1;ratioP1;P1;durP2;ratioP2;P2;SDS_P1;SDS_P2;PMS_P1;PMS_P2;Temp;Humidity;BMP_temperature;BMP_pressure;BME280_temperature;BME280_humidity;BME280_pressure;Samples;Min_cycle;Max_cycle;Signal;HPM_P1;HPM_P2
2021/10/08 00:02:20;;;;;;;1.35;0.47;;;23.70;50.90;;;;;;5039322;28;20557;-63
2021/10/08 00:04:47;;;;;;;0.88;0.68;;;23.70;50.80;;;;;;5046017;28;20102;-62
2021/10/08 00:07:14;;;;;;;4.75;0.40;;;23.70;50.80;;;;;;5042538;28;20460;-62
2021/10/08 00:09:42;;;;;;;1.20;0.40;;;23.70;50.80;;;;;;5039194;28;20040;-61
2021/10/08 00:12:10;;;;;;;2.08;0.55;;;23.70;50.70;;;;;;5040859;28;20761;-60
2021/10/08 00:14:37;;;;;;;6.65;0.40;;;23.70;50.70;;;;;;5044772;28;20037;-51
2021/10/08 00:17:04;;;;;;;1.65;0.57;;;23.70;50.80;;;;;;5046833;28;20048;-61
2021/10/08 00:19:31;;;;;;;1.02;0.45;;;23.70;50.70;;;;;;5048243;28;20092;-57
2021/10/08 00:21:58;;;;;;;0.80;0.35;;;23.70;50.80;;;;;;5039362;28;20127;-59
2021/10/08 00:24:25;;;;;;;1.13;0.30;;;23.70;50.70;;;;;;5041237;28;20032;-59
2021/10/08 00:26:54;;;;;;;3.08;0.47;;;23.60;50.70;;;;;;5044304;28;20059;-60
2021/10/08 00:29:21;;;;;;;0.50;0.40;;;23.70;50.70;;;;;;5044616;28;20040;-61
2021/10/08 00:31:48;;;;;;;0.93;0.60;;;23.60;50.70;;;;;;5045694;28;20517;-73
2021/10/08 00:34:15;;;;;;;2.40;0.47;;;23.60;50.70;;;;;;5047973;28;20040;-63
2021/10/08 00:36:42;;;;;;;1.10;0.73;;;23.60;50.60;;;;;;5040039;28;20517;-61
2021/10/08 00:39:09;;;;;;;1.50;0.60;;;23.60;50.60;;;;;;5042990;28;20090;-61
2021/10/08 00:41:36;;;;;;;0.50;0.38;;;23.60;50.60;;;;;;5045510;28;20049;-63
2021/10/08 00:44:05;;;;;;;3.33;0.60;;;23.60;50.60;;;;;;5044437;28;20037;-61
2021/10/08 00:46:32;;;;;;;0.85;0.20;;;23.60;50.60;;;;;;5048403;28;20055;-61
2021/10/08 00:49:00;;;;;;;0.30;0.20;;;23.60;50.60;;;;;;5042658;28;20037;-54
2021/10/08 00:51:27;;;;;;;0.88;0.22;;;23.60;50.60;;;;;;5041415;28;20536;-50
2021/10/08 00:53:54;;;;;;;1.70;0.50;;;23.60;50.60;;;;;;5042867;28;20045;-50
2021/10/08 00:56:21;;;;;;;2.88;0.40;;;23.60;50.60;;;;;;5038871;28;20053;-51
2021/10/08 00:58:51;;;;;;;6.18;0.68;;;23.60;50.60;;;;;;5042714;28;20044;-48
2021/10/08 01:01:20;;;;;;;1.98;0.52;;;23.60;50.60;;;;;;5041402;28;20059;-49
2021/10/08 01:03:47;;;;;;;2.97;0.45;;;23.60;50.60;;;;;;5040471;28;20049;-52
2021/10/08 01:06:15;;;;;;;1.35;0.60;;;23.60;50.50;;;;;;5044726;28;20037;-49
2021/10/08 01:08:42;;;;;;;7.32;0.50;;;23.50;50.50;;;;;;5044721;28;20051;-50
2021/10/08 01:11:10;;;;;;;3.20;0.55;;;23.60;50.50;;;;;;5056088;28;20038;-49
2021/10/08 01:13:39;;;;;;;2.20;0.47;;;23.60;50.50;;;;;;5041848;28;20098;-52
2021/10/08 01:16:06;;;;;;;0.57;0.20;;;23.50;50.50;;;;;;5045092;28;20087;-51
2021/10/08 01:18:41;;;;;;;1.45;0.47;;;23.50;50.50;;;;;;5038043;28;20037;-49
2021/10/08 01:21:10;;;;;;;4.72;0.60;;;23.50;50.60;;;;;;5043509;28;20047;-49
2021/10/08 01:23:37;;;;;;;2.72;0.28;;;23.50;50.60;;;;;;5041711;28;20387;-47
2021/10/08 01:26:04;;;;;;;6.95;0.80;;;23.50;50.60;;;;;;5041067;28;20116;-52
2021/10/08 01:28:35;;;;;;;2.22;0.25;;;23.50;50.60;;;;;;5044358;28;20527;-48
2021/10/08 01:31:07;;;;;;;2.67;0.43;;;23.50;50.70;;;;;;5042484;28;20077;-48
2021/10/08 01:33:54;;;;;;;6.53;0.40;;;23.50;50.70;;;;;;5043028;28;20041;-47
2021/10/08 01:36:24;;;;;;;2.45;0.30;;;23.50;50.70;;;;;;5046544;28;20516;-49
2021/10/08 01:38:57;;;;;;;0.57;0.20;;;23.50;50.80;;;;;;5047463;28;20049;-47
2021/10/08 01:41:26;;;;;;;1.38;0.28;;;23.40;50.70;;;;;;5045168;28;20454;-47
2021/10/08 01:43:54;;;;;;;7.82;1.05;;;23.40;50.70;;;;;;5046812;28;20037;-47
2021/10/08 01:46:21;;;;;;;5.55;1.38;;;23.40;50.70;;;;;;5050079;28;20430;-48
2021/10/08 01:48:48;;;;;;;3.60;0.38;;;23.40;50.70;;;;;;5041360;28;20683;-47
2021/10/08 01:51:16;;;;;;;1.20;0.28;;;23.40;50.70;;;;;;5041783;28;20041;-47
2021/10/08 01:53:47;;;;;;;0.40;0.30;;;23.40;50.80;;;;;;5046067;28;20115;-47
2021/10/08 01:56:14;;;;;;;7.65;1.02;;;23.40;50.70;;;;;;5048056;28;20043;-53
2021/10/08 01:58:58;;;;;;;1.40;0.20;;;23.30;50.70;;;;;;5046791;28;20080;-53
2021/10/08 02:01:26;;;;;;;2.08;0.30;;;23.40;50.80;;;;;;5043362;28;20045;-48
2021/10/08 02:03:57;;;;;;;0.73;0.20;;;23.30;50.70;;;;;;5040017;28;20548;-50
2021/10/08 02:06:27;;;;;;;0.55;0.30;;;23.30;50.70;;;;;;5032626;28;20045;-52
2021/10/08 02:08:56;;;;;;;5.78;0.17;;;23.30;51.30;;;;;;5044428;28;20616;-47
2021/10/08 02:11:23;;;;;;;4.65;0.52;;;23.30;50.80;;;;;;5047171;28;20517;-49
2021/10/08 02:13:50;;;;;;;1.33;0.38;;;23.30;50.80;;;;;;5041902;28;20068;-48
2021/10/08 02:16:20;;;;;;;2.72;0.40;;;23.30;50.80;;;;;;5047727;28;20138;-47
2021/10/08 02:18:56;;;;;;;5.68;0.50;;;23.30;50.90;;;;;;5042903;28;20045;-51
2021/10/08 02:21:25;;;;;;;1.55;0.73;;;23.30;50.90;;;;;;5047726;28;20045;-51
2021/10/08 02:23:53;;;;;;;5.85;0.30;;;23.30;50.90;;;;;;5044459;28;20132;-50
2021/10/08 02:26:22;;;;;;;3.15;0.43;;;23.30;50.90;;;;;;5047461;28;20124;-47
2021/10/08 02:28:49;;;;;;;2.38;0.70;;;23.30;50.90;;;;;;5047941;28;20528;-47
2021/10/08 02:31:18;;;;;;;8.85;1.17;;;23.30;50.90;;;;;;5048471;28;20056;-50
2021/10/08 02:33:46;;;;;;;2.17;0.28;;;23.30;50.90;;;;;;5047908;28;20549;-52
2021/10/08 02:36:13;;;;;;;1.23;0.80;;;23.30;50.90;;;;;;5048617;28;20049;-48
2021/10/08 02:38:42;;;;;;;0.57;0.30;;;23.30;50.90;;;;;;5045283;28;20359;-49
2021/10/08 02:41:10;;;;;;;4.88;0.30;;;23.30;50.90;;;;;;5048997;28;20417;-48
2021/10/08 02:43:39;;;;;;;0.50;0.22;;;23.20;50.80;;;;;;5045467;28;20047;-50
2021/10/08 02:46:07;;;;;;;0.45;0.30;;;23.20;50.80;;;;;;5049170;28;20167;-46
2021/10/08 02:48:35;;;;;;;1.48;0.32;;;23.20;50.90;;;;;;5043759;28;20049;-48
2021/10/08 02:51:03;;;;;;;7.30;0.60;;;23.20;50.90;;;;;;5046041;28;20073;-47
2021/10/08 02:53:30;;;;;;;1.15;0.25;;;23.20;50.90;;;;;;5040430;28;21111;-46
2021/10/08 02:55:57;;;;;;;1.70;0.65;;;23.20;50.90;;;;;;5046942;28;20102;-47
2021/10/08 02:58:26;;;;;;;0.73;0.40;;;23.20;50.90;;;;;;5047902;28;20072;-47
2021/10/08 03:00:54;;;;;;;1.85;0.10;;;23.20;50.90;;;;;;5039399;28;20049;-46
2021/10/08 03:03:22;;;;;;;1.48;0.40;;;23.20;50.90;;;;;;5043670;28;20053;-49
2021/10/08 03:05:49;;;;;;;1.65;0.20;;;23.10;50.90;;;;;;5047140;28;20055;-50
2021/10/08 03:08:17;;;;;;;1.20;0.45;;;23.10;50.90;;;;;;5045511;28;20394;-49
2021/10/08 03:10:44;;;;;;;4.88;0.20;;;23.20;51.00;;;;;;5047807;28;20051;-46
2021/10/08 03:13:11;;;;;;;2.05;0.30;;;23.10;51.50;;;;;;5048177;28;20047;-49
2021/10/08 03:15:39;;;;;;;0.63;0.20;;;23.20;51.00;;;;;;5047087;28;20041;-46
2021/10/08 03:18:07;;;;;;;8.70;0.30;;;23.10;51.00;;;;;;5046508;28;20045;-47
2021/10/08 03:20:35;;;;;;;4.72;0.50;;;23.10;51.00;;;;;;5048464;28;20045;-47
2021/10/08 03:23:02;;;;;;;0.68;0.40;;;23.10;51.00;;;;;;5046913;28;20071;-49
2021/10/08 03:25:29;;;;;;;3.53;0.30;;;23.10;51.00;;;;;;5043972;28;20068;-48
2021/10/08 03:27:56;;;;;;;2.75;0.20;;;23.10;51.00;;;;;;5048107;28;20529;-52
2021/10/08 03:30:23;;;;;;;2.47;0.20;;;23.10;50.90;;;;;;5042473;28;20440;-49
2021/10/08 03:32:50;;;;;;;0.82;0.40;;;23.10;51.00;;;;;;5047718;28;20152;-50
2021/10/08 03:35:19;;;;;;;1.33;0.38;;;23.10;51.00;;;;;;5046655;28;20041;-52
2021/10/08 03:37:52;;;;;;;0.75;0.40;;;23.10;51.60;;;;;;5048220;28;20041;-50
2021/10/08 03:40:24;;;;;;;2.50;0.60;;;23.10;51.00;;;;;;5045733;28;20426;-49
2021/10/08 03:42:52;;;;;;;1.02;0.10;;;23.10;51.00;;;;;;5046786;28;20135;-52
2021/10/08 03:45:19;;;;;;;0.40;0.20;;;23.10;51.00;;;;;;5040905;28;20184;-48
2021/10/08 03:48:03;;;;;;;0.30;0.20;;;23.00;51.00;;;;;;5046918;28;20477;-49
2021/10/08 03:50:32;;;;;;;2.50;0.20;;;23.00;50.90;;;;;;5045923;28;20135;-49
2021/10/08 03:52:59;;;;;;;2.00;0.47;;;23.10;51.00;;;;;;5046392;28;20051;-46
2021/10/08 03:55:26;;;;;;;2.00;1.45;;;23.10;51.00;;;;;;5049097;28;20039;-46
2021/10/08 03:57:53;;;;;;;0.60;0.20;;;23.10;51.00;;;;;;5047032;28;20506;-49
2021/10/08 04:00:21;;;;;;;0.22;0.20;;;23.00;51.00;;;;;;5042562;28;20536;-49
2021/10/08 04:02:58;;;;;;;6.63;0.20;;;23.00;51.00;;;;;;5045456;28;20052;-49
2021/10/08 04:05:25;;;;;;;0.40;0.20;;;23.00;51.00;;;;;;5045971;28;20072;-53
2021/10/08 04:07:53;;;;;;;0.70;0.20;;;23.00;51.00;;;;;;5045742;28;20053;-48
2021/10/08 04:10:20;;;;;;;1.45;0.50;;;23.00;51.10;;;;;;5047551;28;20033;-48
2021/10/08 04:12:49;;;;;;;1.30;0.30;;;23.00;51.10;;;;;;5045718;28;20055;-49
2021/10/08 04:15:16;;;;;;;1.77;0.20;;;23.00;51.10;;;;;;5045606;28;20045;-51
2021/10/08 04:17:43;;;;;;;1.67;0.15;;;23.00;51.10;;;;;;5028660;28;20094;-48
2021/10/08 04:20:11;;;;;;;0.95;0.55;;;23.00;51.20;;;;;;5043829;28;20056;-52
2021/10/08 04:22:38;;;;;;;0.80;0.20;;;23.00;51.20;;;;;;5048182;28;20068;-50
2021/10/08 04:25:09;;;;;;;1.23;0.20;;;23.00;51.20;;;;;;5032878;28;20041;-49
2021/10/08 04:27:37;;;;;;;1.73;0.10;;;23.00;51.20;;;;;;5045556;28;20033;-48
2021/10/08 04:30:06;;;;;;;1.95;0.57;;;23.00;51.20;;;;;;5045409;28;20049;-50
2021/10/08 04:32:37;;;;;;;0.35;0.15;;;23.00;51.30;;;;;;5045665;28;20040;-49
2021/10/08 04:35:05;;;;;;;1.42;0.40;;;23.00;51.30;;;;;;5045106;28;20041;-49
2021/10/08 04:37:32;;;;;;;0.52;0.20;;;23.00;51.30;;;;;;5047239;28;20059;-50
2021/10/08 04:39:59;;;;;;;1.98;0.20;;;23.00;51.30;;;;;;5044048;28;20128;-48
2021/10/08 04:42:28;;;;;;;0.70;0.20;;;23.00;51.40;;;;;;5045111;28;20040;-51
2021/10/08 04:44:56;;;;;;;1.45;0.20;;;23.00;51.30;;;;;;5043013;28;20514;-47
2021/10/08 04:47:23;;;;;;;0.55;0.52;;;23.00;51.30;;;;;;5045684;28;20045;-48
2021/10/08 04:49:51;;;;;;;0.70;0.10;;;23.00;51.30;;;;;;5045741;28;20037;-53
2021/10/08 04:52:18;;;;;;;0.90;0.45;;;23.00;51.30;;;;;;5046672;28;20124;-49
2021/10/08 04:54:47;;;;;;;1.05;0.28;;;23.00;51.30;;;;;;5045609;28;20056;-49
2021/10/08 04:57:14;;;;;;;1.35;0.73;;;23.00;51.30;;;;;;5045379;28;20045;-49
2021/10/08 04:59:43;;;;;;;6.03;0.63;;;23.00;51.30;;;;;;5044917;28;20535;-48
2021/10/08 05:02:10;;;;;;;0.60;0.20;;;23.00;51.30;;;;;;5039428;28;20048;-51
2021/10/08 05:04:38;;;;;;;4.28;0.20;;;23.00;51.40;;;;;;5043383;28;20045;-50
2021/10/08 05:07:05;;;;;;;1.55;0.10;;;23.00;51.30;;;;;;5042346;28;20051;-51
2021/10/08 05:09:33;;;;;;;2.92;0.20;;;23.00;51.30;;;;;;5045056;28;20401;-48
2021/10/08 05:12:02;;;;;;;0.35;0.35;;;22.90;51.30;;;;;;5046933;28;20116;-49
2021/10/08 05:14:29;;;;;;;0.73;0.73;;;22.90;51.30;;;;;;5047923;28;20060;-47
2021/10/08 05:16:57;;;;;;;0.68;0.25;;;22.90;51.30;;;;;;5048197;28;20040;-47
2021/10/08 05:19:25;;;;;;;0.47;0.40;;;22.90;51.30;;;;;;5046881;28;20420;-48
2021/10/08 05:21:59;;;;;;;1.15;0.20;;;22.90;51.20;;;;;;5045981;28;20116;-47
2021/10/08 05:24:26;;;;;;;0.95;0.22;;;22.90;51.30;;;;;;5047453;28;20476;-49
2021/10/08 05:26:54;;;;;;;0.95;0.40;;;22.90;51.30;;;;;;5044968;28;20040;-55
2021/10/08 05:29:21;;;;;;;0.73;0.20;;;22.90;51.20;;;;;;5047236;28;20037;-51
2021/10/08 05:31:48;;;;;;;0.32;0.30;;;22.90;51.30;;;;;;5045654;28;20053;-49
2021/10/08 05:34:19;;;;;;;3.70;0.20;;;22.90;51.30;;;;;;5048286;28;20049;-47
2021/10/08 05:36:49;;;;;;;1.23;0.25;;;22.90;51.30;;;;;;5048360;28;20518;-47
2021/10/08 05:39:17;;;;;;;0.93;0.50;;;22.90;51.30;;;;;;5045367;28;20127;-48
2021/10/08 05:41:45;;;;;;;2.28;0.32;;;22.80;51.20;;;;;;5044092;28;20057;-47
2021/10/08 05:44:12;;;;;;;2.15;0.30;;;22.80;51.20;;;;;;5047991;28;20045;-50
2021/10/08 05:46:39;;;;;;;3.45;0.43;;;22.80;51.30;;;;;;5049092;28;20037;-47
2021/10/08 05:49:07;;;;;;;1.85;0.75;;;22.80;51.30;;;;;;5045252;28;20052;-50
2021/10/08 05:51:35;;;;;;;1.85;0.40;;;22.80;51.30;;;;;;5044502;28;20044;-48
2021/10/08 05:54:03;;;;;;;2.05;0.22;;;22.80;51.30;;;;;;5048352;28;20040;-47
2021/10/08 05:56:30;;;;;;;1.65;0.35;;;22.80;51.30;;;;;;5048051;28;20520;-50
2021/10/08 05:58:57;;;;;;;1.85;0.30;;;22.80;51.30;;;;;;5046400;28;20909;-51
2021/10/08 06:01:25;;;;;;;5.05;0.80;;;22.80;51.30;;;;;;5046769;28;20044;-49
2021/10/08 06:03:52;;;;;;;10.05;0.45;;;22.80;51.30;;;;;;5046338;28;20099;-50
2021/10/08 06:06:20;;;;;;;5.65;0.40;;;22.80;51.30;;;;;;5042125;28;20095;-51
2021/10/08 06:08:49;;;;;;;7.13;0.30;;;22.80;51.30;;;;;;5046842;28;20045;-48
2021/10/08 06:11:18;;;;;;;3.58;0.30;;;22.80;51.20;;;;;;5042312;28;20120;-48
2021/10/08 06:13:47;;;;;;;2.38;0.28;;;22.80;51.30;;;;;;5042463;28;20041;-46
2021/10/08 06:16:14;;;;;;;1.08;0.75;;;22.80;51.30;;;;;;5045827;28;20084;-47
2021/10/08 06:18:41;;;;;;;0.88;0.22;;;22.80;51.20;;;;;;5042391;28;20051;-51
2021/10/08 06:21:10;;;;;;;1.65;0.28;;;22.80;51.30;;;;;;5041956;28;20114;-45
2021/10/08 06:23:37;;;;;;;2.55;0.57;;;22.80;51.40;;;;;;5048022;28;20145;-49
2021/10/08 06:26:06;;;;;;;1.00;0.60;;;22.80;51.60;;;;;;5046892;28;20434;-49
2021/10/08 06:28:34;;;;;;;4.00;0.28;;;22.80;51.60;;;;;;5047902;28;20040;-51
2021/10/08 06:31:03;;;;;;;2.60;0.57;;;22.80;51.70;;;;;;5041742;28;20124;-47
2021/10/08 06:33:33;;;;;;;2.83;0.35;;;22.70;51.70;;;;;;5029780;28;20128;-49
2021/10/08 06:36:01;;;;;;;1.92;0.68;;;22.70;51.80;;;;;;5044814;28;20037;-49
2021/10/08 06:38:28;;;;;;;1.30;0.60;;;22.70;51.80;;;;;;5043809;28;22707;-47
2021/10/08 06:40:55;;;;;;;3.45;0.35;;;22.70;51.80;;;;;;5046468;28;20095;-50
2021/10/08 06:43:24;;;;;;;1.48;0.38;;;22.70;51.80;;;;;;5041996;28;20048;-49
2021/10/08 06:46:03;;;;;;;1.50;0.30;;;22.70;51.90;;;;;;5047569;28;20049;-48
2021/10/08 06:48:31;;;;;;;4.20;0.50;;;22.70;51.90;;;;;;5041922;28;20041;-47
2021/10/08 06:50:59;;;;;;;2.92;0.93;;;22.70;52.00;;;;;;5047236;28;20037;-49
2021/10/08 06:53:26;;;;;;;1.35;0.50;;;22.70;52.00;;;;;;5045949;28;20546;-47
2021/10/08 06:55:54;;;;;;;0.40;0.20;;;22.70;52.00;;;;;;5032703;28;20449;-41
2021/10/08 06:58:42;;;;;;;1.58;0.40;;;22.70;52.00;;;;;;5044905;28;20052;-49
2021/10/08 07:01:09;;;;;;;1.67;0.52;;;22.70;52.20;;;;;;5045796;28;20520;-48
2021/10/08 07:03:36;;;;;;;3.45;0.40;;;22.70;52.20;;;;;;5044531;28;20041;-47
2021/10/08 07:06:04;;;;;;;1.42;0.43;;;22.70;52.70;;;;;;5035578;28;20029;-48
2021/10/08 07:08:31;;;;;;;7.03;0.68;;;22.70;52.00;;;;;;5045149;28;20421;-48
2021/10/08 07:10:58;;;;;;;3.67;0.73;;;22.70;52.10;;;;;;5042421;28;20592;-51
2021/10/08 07:13:26;;;;;;;7.35;1.95;;;22.70;52.10;;;;;;5043863;28;20068;-51
2021/10/08 07:15:54;;;;;;;24.15;8.20;;;22.70;52.30;;;;;;5048087;28;20033;-53
2021/10/08 07:18:25;;;;;;;16.50;6.20;;;22.70;52.80;;;;;;5046513;28;20060;-50
